EW4061 Weather Reports


Display with metric or nautical units.
time (UTC)temp
F
wind
direction
speed
MPH
gust
MPH
rain 1hr
in
rain 24hr
in
rain mn
in
humidity
%
barometer
mb
20190625112605 74 246 2.0 6.0 0.00 0.18 0.00 2 1016.2
20190625111705 73 279 1.0 4.0 0.00 0.18 0.00 2 1016.3
20190625110805 72 262 0.0 4.0 0.00 0.18 0.00 2 1016.1
20190625105905 72 264 0.0 4.0 0.00 0.18 0.00 2 1016.1
20190625105005 72 242 1.0 4.0 0.00 0.18 0.00 2 1016.0
20190625104105 72 271 1.0 7.0 0.00 0.18 0.00 2 1015.9
20190625103205 72 261 1.0 5.0 0.00 0.18 0.00 2 1015.7
20190625102305 72 272 1.0 6.0 0.00 0.18 0.00 2 1015.5
20190625101405 72 245 0.0 4.0 0.00 0.18 0.00 2 1015.4
20190625100505 72 242 1.0 3.0 0.00 0.18 0.00 2 1015.4
20190625095605 72 244 1.0 5.0 0.00 0.18 0.00 2 1015.3
20190625094705 72 254 1.0 5.0 0.00 0.18 0.00 2 1015.2
20190625093805 72 256 1.0 6.0 0.00 0.18 0.00 2 1015.2
20190625092905 72 256 1.0 5.0 0.00 0.18 0.00 2 1015.2
20190625092005 72 277 1.0 6.0 0.00 0.18 0.00 2 1014.9
20190625091105 72 266 1.0 9.0 0.00 0.18 0.00 2 1014.7
20190625090205 72 262 1.0 3.0 0.00 0.18 0.00 2 1014.5
20190625085306 72 265 2.0 11.0 0.00 0.18 0.00 2 1014.4
20190625084405 72 263 2.0 7.0 0.00 0.18 0.00 2 1014.4
20190625083505 73 264 2.0 10.0 0.00 0.18 0.00 2 1014.3
20190625082605 73 261 3.0 9.0 0.00 0.18 0.00 2 1014.3
20190625081705 73 247 3.0 15.0 0.00 0.18 0.00 2 1014.3
20190625080805 72 256 2.0 7.0 0.00 0.18 0.00 2 1014.2
20190625075905 72 264 1.0 5.0 0.00 0.18 0.00 2 1014.1
20190625075005 73 255 1.0 9.0 0.00 0.18 0.00 2 1014.1
20190625074105 73 265 1.0 7.0 0.00 0.18 0.00 2 1014.1
20190625073205 73 274 1.0 7.0 0.00 0.18 0.00 2 1014.2
20190625072305 73 264 2.0 11.0 0.00 0.18 0.00 2 1014.1
20190625071405 73 279 1.0 10.0 0.00 0.18 0.00 2 1014.2
20190625070505 73 260 2.0 6.0 0.00 0.18 0.00 2 1014.2
20190625065605 73 280 2.0 10.0 0.00 0.18 0.00 2 1014.1
20190625064705 73 271 1.0 8.0 0.00 0.18 0.00 2 1014.2
20190625063805 73 279 2.0 10.0 0.00 0.18 0.00 2 1014.2
20190625062905 72 211 0.0 6.0 0.00 0.18 0.00 2 1014.1
20190625062005 73 249 1.0 9.0 0.00 0.18 0.00 2 1014.2
20190625061105 73 256 1.0 7.0 0.00 0.18 0.00 2 1014.3
20190625060205 73 287 1.0 5.0 0.00 0.18 0.00 2 1014.2
20190625055305 73 266 0.0 3.0 0.00 0.18 0.00 2 1014.4
20190625054405 73 249 2.0 11.0 0.00 0.18 0.00 2 1014.4
20190625053505 73 275 1.0 5.0 0.00 0.18 0.00 2 1014.4
20190625052605 74 269 2.0 9.0 0.00 0.18 0.00 2 1014.4
20190625051705 74 264 2.0 9.0 0.00 0.18 0.00 2 1014.5
20190625050805 73 278 1.0 4.0 0.00 0.18 0.00 2 1014.6
20190625045905 73 274 1.0 5.0 0.00 0.18 0.00 2 1014.6
20190625045005 72 279 0.0 2.0 0.00 0.18 0.00 2 1014.6
20190625044105 73 293 1.0 4.0 0.00 0.18 0.00 2 1014.4
20190625043206 73 272 1.0 4.0 0.00 0.18 0.00 2 1014.4
20190625042305 73 276 0.0 2.0 0.00 0.18 0.00 2 1014.4
20190625041405 73 279 0.0 3.0 0.01 0.18 0.00 2 1014.4
20190625040505 73 275 0.0 2.0 0.01 0.18 0.00 2 1014.4
20190625035605 73 276 0.0 3.0 0.01 0.18 0.18 2 1014.3
20190625034705 73 287 1.0 4.0 0.01 0.18 0.18 2 1014.3
20190625033805 73 299 1.0 3.0 0.01 0.18 0.18 2 1014.2
20190625032905 73 290 1.0 2.0 0.02 0.18 0.18 2 1014.2
20190625032005 74 288 1.0 2.0 0.01 0.17 0.17 2 1014.1
20190625031105 74 316 1.0 3.0 0.01 0.17 0.17 2 1014.2
20190625030205 74 315 1.0 3.0 0.01 0.17 0.17 2 1014.2
20190625025305 74 307 1.0 3.0 0.03 0.17 0.17 2 1014.1
20190625024405 74 281 0.0 3.0 0.06 0.17 0.17 2 1014.0
20190625023505 74 28 0.0 2.0 0.17 0.17 0.17 2 1013.9
20190625022605 75 40 0.0 3.0 0.16 0.16 0.16 2 1013.6
20190625021705 75 281 0.0 1.0 0.16 0.16 0.16 2 1013.7
20190625020805 75 285 0.0 3.0 0.16 0.16 0.16 2 1013.6
20190625015905 76 41 1.0 4.0 0.15 0.15 0.15 2 1013.5
20190625015005 77 360 1.0 6.0 0.13 0.13 0.13 2 1013.6
20190625014105 79 298 2.0 8.0 0.07 0.07 0.07 2 1013.6
20190625013205 81 321 1.0 4.0 0.00 0.00 0.00 2 1012.7
20190625012305 81 156 2.0 7.0 0.00 0.00 0.00 4 1012.7
20190625011405 82 140 2.0 8.0 0.00 0.00 0.00 8 1012.6
20190625010505 82 128 2.0 7.0 0.00 0.00 0.00 13 1012.4
20190625005605 83 119 2.0 7.0 0.00 0.00 0.00 23 1012.3
20190625004705 82 137 2.0 8.0 0.00 0.00 0.00 20 1012.1
20190625003805 83 137 3.0 8.0 0.00 0.00 0.00 19 1012.0
20190625002905 83 143 3.0 10.0 0.00 0.00 0.00 18 1012.1
20190625002005 83 147 2.0 6.0 0.00 0.00 0.00 15 1012.3
20190625001105 83 156 2.0 7.0 0.00 0.00 0.00 18 1012.4
20190625000205 83 141 2.0 6.0 0.00 0.00 0.00 17 1012.3
20190624235305 83 138 2.0 6.0 0.00 0.00 0.00 14 1012.1
20190624234405 83 144 3.0 10.0 0.00 0.00 0.00 20 1012.2
20190624233505 84 144 3.0 8.0 0.00 0.00 0.00 20 1012.4
20190624232605 84 143 3.0 8.0 0.00 0.00 0.00 24 1012.3
20190624231705 84 144 2.0 6.0 0.00 0.00 0.00 27 1012.3
20190624230805 85 144 3.0 8.0 0.00 0.00 0.00 29 1012.4
20190624225905 86 173 3.0 9.0 0.00 0.00 0.00 36 1012.1
20190624225005 86 145 3.0 7.0 0.00 0.00 0.00 40 1012.1
20190624224105 87 139 1.0 5.0 0.00 0.00 0.00 43 1012.1
20190624223205 87 139 1.0 4.0 0.00 0.00 0.00 42 1012.1
20190624222305 87 154 2.0 6.0 0.00 0.00 0.00 44 1012.2
20190624221405 88 154 2.0 8.0 0.00 0.00 0.00 46 1012.3
20190624220505 88 145 3.0 7.0 0.00 0.00 0.00 45 1012.4
20190624215605 88 152 3.0 9.0 0.00 0.00 0.00 46 1012.4
20190624214705 88 147 4.0 12.0 0.00 0.00 0.00 47 1012.3
20190624213805 88 142 4.0 9.0 0.00 0.00 0.00 46 1012.4
20190624212905 88 156 4.0 11.0 0.00 0.00 0.00 48 1012.5
20190624212005 88 146 4.0 11.0 0.00 0.00 0.00 47 1012.5
20190624211105 88 133 4.0 9.0 0.00 0.00 0.00 49 1012.5
20190624210205 88 141 6.0 16.0 0.00 0.00 0.00 48 1012.4
20190624205305 88 152 5.0 17.0 0.00 0.00 0.00 47 1012.7
20190624204406 88 139 5.0 13.0 0.00 0.00 0.00 46 1012.8
20190624203506 88 148 4.0 16.0 0.00 0.00 0.00 44 1012.7
20190624202606 87 145 4.0 11.0 0.00 0.00 0.00 39 1012.9
20190624201705 86 144 5.0 10.0 0.00 0.00 0.00 33 1013.1
20190624200805 86 139 5.0 14.0 0.00 0.00 0.00 33 1013.3
20190624195906 86 144 8.0 18.0 0.00 0.00 0.00 32 1013.4
20190624195006 86 142 7.0 18.0 0.00 0.00 0.00 31 1013.4
20190624194105 87 147 5.0 16.0 0.00 0.00 0.00 32 1013.7
20190624193205 86 144 5.0 11.0 0.00 0.00 0.00 27 1013.8
20190624192305 88 139 4.0 14.0 0.00 0.00 0.00 33 1014.0
20190624191405 88 143 4.0 9.0 0.00 0.00 0.00 31 1014.0
20190624190505 88 142 5.0 15.0 0.00 0.00 0.00 35 1014.0
20190624185605 89 140 5.0 11.0 0.00 0.00 0.00 40 1014.1
20190624184705 91 147 2.0 5.0 0.00 0.00 0.00 48 1014.2
20190624183806 91 137 3.0 6.0 0.00 0.00 0.00 48 1014.2
20190624182905 92 149 3.0 8.0 0.00 0.00 0.00 48 1014.4
20190624182006 92 252 2.0 9.0 0.00 0.00 0.00 47 1014.6
20190624181105 92 244 2.0 8.0 0.00 0.00 0.00 47 1014.8
20190624180206 92 120 2.0 8.0 0.00 0.00 0.00 49 1014.7
20190624175306 92 109 2.0 5.0 0.00 0.00 0.00 49 1014.9
20190624174406 92 152 2.0 6.0 0.00 0.00 0.00 48 1015.1
20190624173505 92 145 1.0 5.0 0.00 0.00 0.00 48 1015.2
20190624172605 90 127 2.0 5.0 0.00 0.00 0.00 48 1015.3
20190624171705 90 126 2.0 6.0 0.00 0.00 0.00 48 1015.5
20190624170805 90 160 2.0 6.0 0.00 0.00 0.00 46 1015.5
20190624165906 91 141 2.0 7.0 0.00 0.00 0.00 49 1015.7
20190624165006 91 137 1.0 4.0 0.00 0.00 0.00 48 1015.7
20190624164106 90 132 1.0 4.0 0.00 0.00 0.00 48 1015.8
20190624163207 90 140 2.0 5.0 0.00 0.00 0.00 48 1015.9
20190624162309 89 164 2.0 7.0 0.00 0.00 0.00 48 1016.0
20190624161406 89 132 3.0 8.0 0.00 0.00 0.00 45 1015.9
20190624160505 89 115 2.0 6.0 0.00 0.00 0.00 45 1016.0
20190624155605 88 140 2.0 6.0 0.00 0.00 0.00 47 1016.0
20190624154705 88 122 1.0 5.0 0.00 0.00 0.00 48 1016.3
20190624153806 88 129 2.0 5.0 0.00 0.00 0.00 40 1016.5
20190624152905 88 131 2.0 6.0 0.00 0.00 0.00 39 1016.5
20190624152005 88 137 1.0 4.0 0.00 0.00 0.00 43 1016.4
20190624151107 87 96 0.0 2.0 0.00 0.00 0.00 39 1016.4
20190624150206 86 71 1.0 4.0 0.00 0.00 0.00 30 1016.5
20190624145305 85 51 1.0 5.0 0.00 0.00 0.00 32 1016.5
20190624144406 85 119 2.0 5.0 0.00 0.00 0.00 20 1016.4
20190624143506 85 144 2.0 5.0 0.00 0.00 0.00 14 1016.4
20190624142606 84 132 1.0 3.0 0.00 0.00 0.00 16 1016.4
20190624141706 84 146 2.0 6.0 0.00 0.00 0.00 5 1016.5
20190624140806 83 134 1.0 4.0 0.00 0.00 0.00 9 1016.6
20190624135906 82 114 1.0 3.0 0.00 0.00 0.00 1 1016.6
20190624135006 82 128 0.0 2.0 0.00 0.00 0.00 1 1016.7
20190624134106 80 144 1.0 4.0 0.00 0.00 0.00 1 1016.7
20190624133206 78 140 1.0 4.0 0.00 0.00 0.00 1 1016.7
20190624132307 78 142 1.0 2.0 0.00 0.00 0.00 1 1016.8
20190624131406 77 142 1.0 3.0 0.00 0.00 0.00 1 1016.8
20190624130506 77 134 0.0 3.0 0.00 0.00 0.00 1 1016.8
20190624125606 76 168 0.0 1.0 0.00 0.00 0.00 1 1016.9
20190624124706 74 76 0.0 1.0 0.00 0.00 0.00 1 1016.9
20190624123806 73 141 0.0 2.0 0.00 0.00 0.00 1 1017.0
20190624122906 72 0 0.0 0.0 0.00 0.00 0.00 1 1016.9
20190624122006 70 0 0.0 0.0 0.00 0.00 0.00 1 1016.9
20190624121106 69 0 0.0 0.0 0.00 0.00 0.00 1 1016.8
20190624120206 69 0 0.0 0.0 0.00 0.00 0.00 1 1016.9
20190624115306 68 0 0.0 0.0 0.00 0.00 0.00 1 1016.9
20190624114406 67 0 0.0 0.0 0.00 0.00 0.00 1 1016.9
20190624113506 66 0 0.0 0.0 0.00 0.00 0.00 1 1016.7